sensor_id;sensor_type;location;lat;lon;timestamp;P1;durP1;ratioP1;P2;durP2;ratioP2
25627;SDS011;40915;50.826;4.356;2022-12-18T00:03:43;27.67;;;14.93;;
25627;SDS011;40915;50.826;4.356;2022-12-18T00:06:09;26.87;;;15.00;;
25627;SDS011;40915;50.826;4.356;2022-12-18T00:08:36;26.10;;;15.40;;
25627;SDS011;40915;50.826;4.356;2022-12-18T00:11:05;26.80;;;15.00;;
25627;SDS011;40915;50.826;4.356;2022-12-18T00:13:32;27.37;;;14.43;;
25627;SDS011;40915;50.826;4.356;2022-12-18T00:16:02;29.63;;;17.13;;
25627;SDS011;40915;50.826;4.356;2022-12-18T00:18:32;26.20;;;14.70;;
25627;SDS011;40915;50.826;4.356;2022-12-18T00:20:58;26.87;;;14.87;;
25627;SDS011;40915;50.826;4.356;2022-12-18T00:23:26;27.63;;;14.97;;
25627;SDS011;40915;50.826;4.356;2022-12-18T00:25:52;24.77;;;13.63;;
25627;SDS011;40915;50.826;4.356;2022-12-18T00:28:17;27.60;;;14.93;;
25627;SDS011;40915;50.826;4.356;2022-12-18T00:30:43;28.10;;;15.10;;
25627;SDS011;40915;50.826;4.356;2022-12-18T00:33:09;26.03;;;13.77;;
25627;SDS011;40915;50.826;4.356;2022-12-18T00:35:34;24.53;;;13.07;;
25627;SDS011;40915;50.826;4.356;2022-12-18T00:38:00;21.77;;;13.20;;
25627;SDS011;40915;50.826;4.356;2022-12-18T00:40:25;25.07;;;13.67;;
25627;SDS011;40915;50.826;4.356;2022-12-18T00:42:51;24.67;;;13.03;;
25627;SDS011;40915;50.826;4.356;2022-12-18T00:45:23;25.00;;;13.90;;
25627;SDS011;40915;50.826;4.356;2022-12-18T00:47:54;112.63;;;58.30;;
25627;SDS011;40915;50.826;4.356;2022-12-18T00:50:20;25.50;;;14.13;;
25627;SDS011;40915;50.826;4.356;2022-12-18T00:52:47;27.70;;;14.30;;
25627;SDS011;40915;50.826;4.356;2022-12-18T00:55:13;23.20;;;13.10;;
25627;SDS011;40915;50.826;4.356;2022-12-18T00:57:39;22.73;;;12.57;;
25627;SDS011;40915;50.826;4.356;2022-12-18T01:00:05;21.63;;;12.37;;
25627;SDS011;40915;50.826;4.356;2022-12-18T01:02:32;19.87;;;12.37;;
25627;SDS011;40915;50.826;4.356;2022-12-18T01:04:58;19.83;;;11.60;;
25627;SDS011;40915;50.826;4.356;2022-12-18T01:07:23;19.13;;;10.90;;
25627;SDS011;40915;50.826;4.356;2022-12-18T01:09:49;24.10;;;11.57;;
25627;SDS011;40915;50.826;4.356;2022-12-18T01:12:14;15.27;;;9.67;;
25627;SDS011;40915;50.826;4.356;2022-12-18T01:14:40;17.50;;;9.80;;
25627;SDS011;40915;50.826;4.356;2022-12-18T01:17:06;15.90;;;9.77;;
25627;SDS011;40915;50.826;4.356;2022-12-18T01:19:31;15.23;;;8.93;;
25627;SDS011;40915;50.826;4.356;2022-12-18T01:21:57;15.40;;;8.80;;
25627;SDS011;40915;50.826;4.356;2022-12-18T01:24:24;17.63;;;9.00;;
25627;SDS011;40915;50.826;4.356;2022-12-18T01:26:49;14.90;;;9.10;;
25627;SDS011;40915;50.826;4.356;2022-12-18T01:29:15;16.20;;;9.43;;
25627;SDS011;40915;50.826;4.356;2022-12-18T01:31:40;15.50;;;9.07;;
25627;SDS011;40915;50.826;4.356;2022-12-18T01:34:06;20.87;;;9.90;;
25627;SDS011;40915;50.826;4.356;2022-12-18T01:36:33;16.53;;;9.20;;
25627;SDS011;40915;50.826;4.356;2022-12-18T01:39:02;15.07;;;8.60;;
25627;SDS011;40915;50.826;4.356;2022-12-18T01:41:30;12.67;;;8.43;;
25627;SDS011;40915;50.826;4.356;2022-12-18T01:47:40;12.50;;;7.97;;
25627;SDS011;40915;50.826;4.356;2022-12-18T01:52:35;14.33;;;8.17;;
25627;SDS011;40915;50.826;4.356;2022-12-18T01:55:03;14.70;;;8.60;;
25627;SDS011;40915;50.826;4.356;2022-12-18T01:57:30;14.63;;;7.87;;
25627;SDS011;40915;50.826;4.356;2022-12-18T01:59:57;17.43;;;10.37;;
25627;SDS011;40915;50.826;4.356;2022-12-18T02:02:26;15.80;;;7.77;;
25627;SDS011;40915;50.826;4.356;2022-12-18T02:04:53;15.50;;;8.07;;
25627;SDS011;40915;50.826;4.356;2022-12-18T02:10:02;13.53;;;8.03;;
25627;SDS011;40915;50.826;4.356;2022-12-18T02:12:49;14.07;;;8.53;;
25627;SDS011;40915;50.826;4.356;2022-12-18T02:15:32;13.03;;;8.10;;
25627;SDS011;40915;50.826;4.356;2022-12-18T02:18:19;16.30;;;8.20;;
25627;SDS011;40915;50.826;4.356;2022-12-18T02:20:49;15.23;;;7.83;;
25627;SDS011;40915;50.826;4.356;2022-12-18T02:26:14;13.37;;;8.37;;
25627;SDS011;40915;50.826;4.356;2022-12-18T02:28:59;16.93;;;8.80;;
25627;SDS011;40915;50.826;4.356;2022-12-18T02:31:30;13.57;;;8.27;;
25627;SDS011;40915;50.826;4.356;2022-12-18T02:34:01;15.37;;;8.33;;
25627;SDS011;40915;50.826;4.356;2022-12-18T02:36:29;14.10;;;8.27;;
25627;SDS011;40915;50.826;4.356;2022-12-18T02:38:57;14.97;;;8.10;;
25627;SDS011;40915;50.826;4.356;2022-12-18T02:41:24;13.93;;;8.37;;
25627;SDS011;40915;50.826;4.356;2022-12-18T02:43:58;16.00;;;8.17;;
25627;SDS011;40915;50.826;4.356;2022-12-18T02:49:02;15.07;;;8.17;;
25627;SDS011;40915;50.826;4.356;2022-12-18T02:51:30;16.93;;;8.80;;
25627;SDS011;40915;50.826;4.356;2022-12-18T02:54:20;15.67;;;8.60;;
25627;SDS011;40915;50.826;4.356;2022-12-18T02:56:51;14.50;;;8.10;;
25627;SDS011;40915;50.826;4.356;2022-12-18T02:59:26;12.73;;;7.37;;
25627;SDS011;40915;50.826;4.356;2022-12-18T03:02:01;13.03;;;7.70;;
25627;SDS011;40915;50.826;4.356;2022-12-18T03:04:36;15.10;;;7.70;;
25627;SDS011;40915;50.826;4.356;2022-12-18T03:07:13;14.47;;;8.00;;
25627;SDS011;40915;50.826;4.356;2022-12-18T03:09:44;17.40;;;8.17;;
25627;SDS011;40915;50.826;4.356;2022-12-18T03:12:30;13.00;;;8.17;;
25627;SDS011;40915;50.826;4.356;2022-12-18T03:15:00;16.40;;;9.50;;
25627;SDS011;40915;50.826;4.356;2022-12-18T03:17:27;13.87;;;8.53;;
25627;SDS011;40915;50.826;4.356;2022-12-18T03:19:56;15.27;;;8.37;;
25627;SDS011;40915;50.826;4.356;2022-12-18T03:22:24;15.60;;;8.50;;
25627;SDS011;40915;50.826;4.356;2022-12-18T03:24:53;14.93;;;8.17;;
25627;SDS011;40915;50.826;4.356;2022-12-18T03:27:22;16.80;;;8.43;;
25627;SDS011;40915;50.826;4.356;2022-12-18T03:29:53;14.23;;;8.40;;
25627;SDS011;40915;50.826;4.356;2022-12-18T03:32:43;15.80;;;8.57;;
25627;SDS011;40915;50.826;4.356;2022-12-18T03:35:14;14.70;;;8.57;;
25627;SDS011;40915;50.826;4.356;2022-12-18T03:37:46;15.23;;;8.80;;
25627;SDS011;40915;50.826;4.356;2022-12-18T03:40:12;16.53;;;9.10;;
25627;SDS011;40915;50.826;4.356;2022-12-18T03:45:26;15.93;;;8.80;;
25627;SDS011;40915;50.826;4.356;2022-12-18T03:48:01;15.43;;;7.80;;
25627;SDS011;40915;50.826;4.356;2022-12-18T03:55:53;12.03;;;7.47;;
25627;SDS011;40915;50.826;4.356;2022-12-18T03:58:21;11.97;;;7.20;;
25627;SDS011;40915;50.826;4.356;2022-12-18T04:00:49;12.37;;;7.43;;
25627;SDS011;40915;50.826;4.356;2022-12-18T04:03:18;13.10;;;7.90;;
25627;SDS011;40915;50.826;4.356;2022-12-18T04:05:46;11.13;;;7.20;;
25627;SDS011;40915;50.826;4.356;2022-12-18T04:08:15;14.57;;;7.97;;
25627;SDS011;40915;50.826;4.356;2022-12-18T04:10:41;12.03;;;7.37;;
25627;SDS011;40915;50.826;4.356;2022-12-18T04:13:06;12.57;;;7.27;;
25627;SDS011;40915;50.826;4.356;2022-12-18T04:15:33;13.33;;;7.20;;
25627;SDS011;40915;50.826;4.356;2022-12-18T04:18:00;11.47;;;7.13;;
25627;SDS011;40915;50.826;4.356;2022-12-18T04:20:26;12.87;;;7.60;;
25627;SDS011;40915;50.826;4.356;2022-12-18T04:22:52;16.20;;;8.50;;
25627;SDS011;40915;50.826;4.356;2022-12-18T04:25:17;14.60;;;7.73;;
25627;SDS011;40915;50.826;4.356;2022-12-18T04:27:43;12.60;;;7.03;;
25627;SDS011;40915;50.826;4.356;2022-12-18T04:30:09;13.27;;;7.93;;
25627;SDS011;40915;50.826;4.356;2022-12-18T04:32:35;13.43;;;7.27;;
25627;SDS011;40915;50.826;4.356;2022-12-18T04:35:01;12.17;;;6.77;;
25627;SDS011;40915;50.826;4.356;2022-12-18T04:37:29;15.40;;;8.17;;
25627;SDS011;40915;50.826;4.356;2022-12-18T04:39:54;12.53;;;7.77;;
25627;SDS011;40915;50.826;4.356;2022-12-18T04:42:20;13.10;;;7.93;;
25627;SDS011;40915;50.826;4.356;2022-12-18T04:44:46;12.87;;;7.50;;
25627;SDS011;40915;50.826;4.356;2022-12-18T04:47:11;14.13;;;7.53;;
25627;SDS011;40915;50.826;4.356;2022-12-18T04:49:37;13.03;;;7.07;;
25627;SDS011;40915;50.826;4.356;2022-12-18T04:52:02;12.83;;;7.37;;
25627;SDS011;40915;50.826;4.356;2022-12-18T04:54:28;13.93;;;7.50;;
25627;SDS011;40915;50.826;4.356;2022-12-18T04:56:54;14.13;;;7.53;;
25627;SDS011;40915;50.826;4.356;2022-12-18T04:59:19;15.93;;;7.53;;
25627;SDS011;40915;50.826;4.356;2022-12-18T05:01:45;13.57;;;7.37;;
25627;SDS011;40915;50.826;4.356;2022-12-18T05:04:10;12.93;;;7.20;;
25627;SDS011;40915;50.826;4.356;2022-12-18T05:06:36;12.80;;;6.90;;
25627;SDS011;40915;50.826;4.356;2022-12-18T05:09:02;15.17;;;7.67;;
25627;SDS011;40915;50.826;4.356;2022-12-18T05:11:28;13.83;;;7.57;;
25627;SDS011;40915;50.826;4.356;2022-12-18T05:13:53;14.07;;;7.57;;
25627;SDS011;40915;50.826;4.356;2022-12-18T05:16:19;12.90;;;7.17;;
25627;SDS011;40915;50.826;4.356;2022-12-18T05:18:44;11.77;;;6.53;;
25627;SDS011;40915;50.826;4.356;2022-12-18T05:21:10;11.90;;;6.97;;
25627;SDS011;40915;50.826;4.356;2022-12-18T05:23:36;13.27;;;7.20;;
25627;SDS011;40915;50.826;4.356;2022-12-18T05:26:02;11.60;;;6.73;;
25627;SDS011;40915;50.826;4.356;2022-12-18T05:28:30;11.30;;;6.03;;
25627;SDS011;40915;50.826;4.356;2022-12-18T05:30:57;10.87;;;6.43;;
25627;SDS011;40915;50.826;4.356;2022-12-18T05:33:25;11.37;;;6.70;;
25627;SDS011;40915;50.826;4.356;2022-12-18T05:35:54;12.20;;;6.60;;
25627;SDS011;40915;50.826;4.356;2022-12-18T05:38:21;13.40;;;7.03;;
25627;SDS011;40915;50.826;4.356;2022-12-18T05:40:50;12.77;;;7.07;;
25627;SDS011;40915;50.826;4.356;2022-12-18T05:43:17;12.23;;;6.53;;
25627;SDS011;40915;50.826;4.356;2022-12-18T05:45:44;12.47;;;6.90;;
25627;SDS011;40915;50.826;4.356;2022-12-18T05:48:10;12.57;;;6.43;;
25627;SDS011;40915;50.826;4.356;2022-12-18T05:50:36;10.50;;;6.50;;
25627;SDS011;40915;50.826;4.356;2022-12-18T05:53:03;9.83;;;6.10;;
25627;SDS011;40915;50.826;4.356;2022-12-18T05:55:37;12.83;;;6.87;;
25627;SDS011;40915;50.826;4.356;2022-12-18T05:58:05;12.93;;;7.17;;
25627;SDS011;40915;50.826;4.356;2022-12-18T06:00:33;12.83;;;6.70;;
25627;SDS011;40915;50.826;4.356;2022-12-18T06:03:04;12.57;;;6.43;;
25627;SDS011;40915;50.826;4.356;2022-12-18T06:05:35;11.70;;;6.10;;
25627;SDS011;40915;50.826;4.356;2022-12-18T06:08:05;10.53;;;5.97;;
25627;SDS011;40915;50.826;4.356;2022-12-18T06:10:31;13.97;;;6.40;;
25627;SDS011;40915;50.826;4.356;2022-12-18T06:12:57;12.87;;;6.30;;
25627;SDS011;40915;50.826;4.356;2022-12-18T06:15:23;9.73;;;5.80;;
25627;SDS011;40915;50.826;4.356;2022-12-18T06:17:49;11.33;;;6.43;;
25627;SDS011;40915;50.826;4.356;2022-12-18T06:20:15;10.60;;;5.73;;
25627;SDS011;40915;50.826;4.356;2022-12-18T06:22:40;8.67;;;5.70;;
25627;SDS011;40915;50.826;4.356;2022-12-18T06:25:06;14.87;;;6.90;;
25627;SDS011;40915;50.826;4.356;2022-12-18T06:27:32;9.73;;;5.90;;
25627;SDS011;40915;50.826;4.356;2022-12-18T06:29:58;7.00;;;5.27;;
25627;SDS011;40915;50.826;4.356;2022-12-18T06:32:24;10.67;;;6.00;;
25627;SDS011;40915;50.826;4.356;2022-12-18T06:34:50;10.07;;;5.50;;
25627;SDS011;40915;50.826;4.356;2022-12-18T06:37:16;9.10;;;5.30;;
25627;SDS011;40915;50.826;4.356;2022-12-18T06:39:41;9.00;;;5.37;;
25627;SDS011;40915;50.826;4.356;2022-12-18T06:42:10;9.27;;;5.27;;
25627;SDS011;40915;50.826;4.356;2022-12-18T06:44:36;10.53;;;5.33;;
25627;SDS011;40915;50.826;4.356;2022-12-18T06:47:02;12.50;;;6.10;;
25627;SDS011;40915;50.826;4.356;2022-12-18T06:49:27;9.17;;;5.63;;
25627;SDS011;40915;50.826;4.356;2022-12-18T06:51:53;10.57;;;5.93;;
25627;SDS011;40915;50.826;4.356;2022-12-18T06:54:19;10.53;;;5.60;;
25627;SDS011;40915;50.826;4.356;2022-12-18T06:56:45;10.73;;;6.13;;
25627;SDS011;40915;50.826;4.356;2022-12-18T06:59:11;13.97;;;6.17;;
25627;SDS011;40915;50.826;4.356;2022-12-18T07:01:38;10.10;;;6.33;;
25627;SDS011;40915;50.826;4.356;2022-12-18T07:04:03;10.50;;;6.33;;
25627;SDS011;40915;50.826;4.356;2022-12-18T07:06:29;12.00;;;6.20;;
25627;SDS011;40915;50.826;4.356;2022-12-18T07:08:55;10.97;;;5.90;;
25627;SDS011;40915;50.826;4.356;2022-12-18T07:11:20;10.60;;;5.63;;
25627;SDS011;40915;50.826;4.356;2022-12-18T07:13:47;9.50;;;5.77;;
25627;SDS011;40915;50.826;4.356;2022-12-18T07:16:13;10.37;;;6.70;;
25627;SDS011;40915;50.826;4.356;2022-12-18T07:18:43;11.73;;;5.93;;
25627;SDS011;40915;50.826;4.356;2022-12-18T07:21:16;8.83;;;5.83;;
25627;SDS011;40915;50.826;4.356;2022-12-18T07:23:43;10.57;;;6.00;;
25627;SDS011;40915;50.826;4.356;2022-12-18T07:26:13;10.47;;;5.90;;
25627;SDS011;40915;50.826;4.356;2022-12-18T07:28:41;11.43;;;6.17;;
25627;SDS011;40915;50.826;4.356;2022-12-18T07:31:07;14.57;;;6.40;;
25627;SDS011;40915;50.826;4.356;2022-12-18T07:33:38;11.43;;;6.20;;
25627;SDS011;40915;50.826;4.356;2022-12-18T07:36:05;9.50;;;6.43;;
25627;SDS011;40915;50.826;4.356;2022-12-18T07:38:32;11.37;;;6.63;;
25627;SDS011;40915;50.826;4.356;2022-12-18T07:41:02;11.23;;;6.03;;
25627;SDS011;40915;50.826;4.356;2022-12-18T07:43:29;10.87;;;6.00;;
25627;SDS011;40915;50.826;4.356;2022-12-18T07:45:55;9.67;;;6.23;;
25627;SDS011;40915;50.826;4.356;2022-12-18T07:48:20;11.97;;;5.77;;
25627;SDS011;40915;50.826;4.356;2022-12-18T07:50:47;9.67;;;5.50;;
25627;SDS011;40915;50.826;4.356;2022-12-18T07:53:13;16.27;;;5.30;;
25627;SDS011;40915;50.826;4.356;2022-12-18T07:55:39;10.47;;;5.50;;
25627;SDS011;40915;50.826;4.356;2022-12-18T07:58:06;8.70;;;5.87;;
25627;SDS011;40915;50.826;4.356;2022-12-18T08:00:32;9.27;;;5.60;;
25627;SDS011;40915;50.826;4.356;2022-12-18T08:02:58;10.07;;;5.93;;
25627;SDS011;40915;50.826;4.356;2022-12-18T08:05:24;13.47;;;6.17;;
25627;SDS011;40915;50.826;4.356;2022-12-18T08:07:50;12.13;;;5.93;;
25627;SDS011;40915;50.826;4.356;2022-12-18T08:10:15;10.17;;;5.57;;
25627;SDS011;40915;50.826;4.356;2022-12-18T08:12:41;10.37;;;5.93;;
25627;SDS011;40915;50.826;4.356;2022-12-18T08:15:07;9.50;;;5.83;;
25627;SDS011;40915;50.826;4.356;2022-12-18T08:17:33;10.80;;;6.33;;
25627;SDS011;40915;50.826;4.356;2022-12-18T08:19:58;9.23;;;5.93;;
25627;SDS011;40915;50.826;4.356;2022-12-18T08:22:24;11.73;;;5.37;;
25627;SDS011;40915;50.826;4.356;2022-12-18T08:24:49;11.53;;;5.80;;
25627;SDS011;40915;50.826;4.356;2022-12-18T08:27:15;14.23;;;9.00;;
25627;SDS011;40915;50.826;4.356;2022-12-18T08:29:41;18.27;;;10.30;;
25627;SDS011;40915;50.826;4.356;2022-12-18T08:32:06;12.57;;;6.37;;
25627;SDS011;40915;50.826;4.356;2022-12-18T08:34:32;11.10;;;5.70;;
25627;SDS011;40915;50.826;4.356;2022-12-18T08:36:58;10.53;;;5.67;;
25627;SDS011;40915;50.826;4.356;2022-12-18T08:39:23;13.43;;;6.27;;
25627;SDS011;40915;50.826;4.356;2022-12-18T08:41:49;9.13;;;5.93;;
25627;SDS011;40915;50.826;4.356;2022-12-18T08:44:33;10.60;;;6.47;;
25627;SDS011;40915;50.826;4.356;2022-12-18T08:47:07;9.47;;;5.47;;
25627;SDS011;40915;50.826;4.356;2022-12-18T08:49:34;10.60;;;5.83;;
25627;SDS011;40915;50.826;4.356;2022-12-18T08:52:00;8.93;;;5.67;;
25627;SDS011;40915;50.826;4.356;2022-12-18T08:54:27;10.67;;;6.23;;
25627;SDS011;40915;50.826;4.356;2022-12-18T08:56:53;9.90;;;5.97;;
25627;SDS011;40915;50.826;4.356;2022-12-18T08:59:19;12.47;;;6.43;;
25627;SDS011;40915;50.826;4.356;2022-12-18T09:01:45;10.00;;;6.10;;
25627;SDS011;40915;50.826;4.356;2022-12-18T09:04:11;11.67;;;6.47;;
25627;SDS011;40915;50.826;4.356;2022-12-18T09:06:38;15.07;;;7.20;;
25627;SDS011;40915;50.826;4.356;2022-12-18T09:09:04;10.70;;;6.80;;
25627;SDS011;40915;50.826;4.356;2022-12-18T09:11:30;11.50;;;6.50;;
25627;SDS011;40915;50.826;4.356;2022-12-18T09:13:57;10.40;;;6.07;;
25627;SDS011;40915;50.826;4.356;2022-12-18T09:16:24;13.33;;;6.97;;
25627;SDS011;40915;50.826;4.356;2022-12-18T09:18:51;11.43;;;6.90;;
25627;SDS011;40915;50.826;4.356;2022-12-18T09:21:19;19.13;;;10.20;;
25627;SDS011;40915;50.826;4.356;2022-12-18T09:23:52;12.40;;;7.10;;
25627;SDS011;40915;50.826;4.356;2022-12-18T09:26:19;13.33;;;7.40;;
25627;SDS011;40915;50.826;4.356;2022-12-18T09:28:49;13.03;;;7.57;;
25627;SDS011;40915;50.826;4.356;2022-12-18T09:31:16;10.97;;;6.87;;
25627;SDS011;40915;50.826;4.356;2022-12-18T09:33:43;12.27;;;7.20;;
25627;SDS011;40915;50.826;4.356;2022-12-18T09:36:10;21.23;;;7.57;;
25627;SDS011;40915;50.826;4.356;2022-12-18T09:38:38;11.03;;;6.87;;
25627;SDS011;40915;50.826;4.356;2022-12-18T09:43:58;12.93;;;7.77;;
25627;SDS011;40915;50.826;4.356;2022-12-18T09:46:32;11.60;;;7.27;;
25627;SDS011;40915;50.826;4.356;2022-12-18T09:49:04;11.57;;;7.23;;
25627;SDS011;40915;50.826;4.356;2022-12-18T09:51:47;13.37;;;6.97;;
25627;SDS011;40915;50.826;4.356;2022-12-18T09:54:26;12.93;;;7.13;;
25627;SDS011;40915;50.826;4.356;2022-12-18T09:57:03;15.87;;;7.70;;
25627;SDS011;40915;50.826;4.356;2022-12-18T09:59:31;14.53;;;8.30;;
25627;SDS011;40915;50.826;4.356;2022-12-18T10:02:02;11.47;;;7.33;;
25627;SDS011;40915;50.826;4.356;2022-12-18T10:04:39;13.90;;;7.43;;
25627;SDS011;40915;50.826;4.356;2022-12-18T10:07:16;16.30;;;8.10;;
25627;SDS011;40915;50.826;4.356;2022-12-18T10:12:32;13.77;;;9.40;;
25627;SDS011;40915;50.826;4.356;2022-12-18T10:20:42;12.43;;;7.60;;
25627;SDS011;40915;50.826;4.356;2022-12-18T10:28:20;14.07;;;8.67;;
25627;SDS011;40915;50.826;4.356;2022-12-18T10:30:48;14.27;;;8.10;;
25627;SDS011;40915;50.826;4.356;2022-12-18T10:33:21;14.47;;;7.60;;
25627;SDS011;40915;50.826;4.356;2022-12-18T10:35:52;13.63;;;8.20;;
25627;SDS011;40915;50.826;4.356;2022-12-18T10:40:48;13.20;;;7.93;;
25627;SDS011;40915;50.826;4.356;2022-12-18T10:43:24;13.80;;;7.90;;
25627;SDS011;40915;50.826;4.356;2022-12-18T10:46:24;12.93;;;7.77;;
25627;SDS011;40915;50.826;4.356;2022-12-18T10:48:49;13.50;;;7.83;;
25627;SDS011;40915;50.826;4.356;2022-12-18T10:53:54;13.50;;;7.80;;
25627;SDS011;40915;50.826;4.356;2022-12-18T10:56:21;14.57;;;8.50;;
25627;SDS011;40915;50.826;4.356;2022-12-18T10:58:59;18.07;;;8.40;;
25627;SDS011;40915;50.826;4.356;2022-12-18T11:01:49;15.47;;;8.80;;
25627;SDS011;40915;50.826;4.356;2022-12-18T11:04:18;17.87;;;9.00;;
25627;SDS011;40915;50.826;4.356;2022-12-18T11:06:59;16.83;;;9.07;;
25627;SDS011;40915;50.826;4.356;2022-12-18T11:09:34;16.03;;;8.60;;
25627;SDS011;40915;50.826;4.356;2022-12-18T11:12:02;14.20;;;8.70;;
25627;SDS011;40915;50.826;4.356;2022-12-18T11:14:47;13.27;;;8.27;;
25627;SDS011;40915;50.826;4.356;2022-12-18T11:17:33;13.87;;;8.50;;
25627;SDS011;40915;50.826;4.356;2022-12-18T11:20:04;20.47;;;9.23;;
25627;SDS011;40915;50.826;4.356;2022-12-18T11:22:33;14.13;;;8.33;;
25627;SDS011;40915;50.826;4.356;2022-12-18T11:27:57;19.13;;;9.63;;
25627;SDS011;40915;50.826;4.356;2022-12-18T11:30:32;26.93;;;10.00;;
25627;SDS011;40915;50.826;4.356;2022-12-18T11:33:06;18.00;;;8.70;;
25627;SDS011;40915;50.826;4.356;2022-12-18T11:38:32;14.57;;;8.53;;
25627;SDS011;40915;50.826;4.356;2022-12-18T11:41:04;13.73;;;8.83;;
25627;SDS011;40915;50.826;4.356;2022-12-18T11:46:15;18.27;;;9.30;;
25627;SDS011;40915;50.826;4.356;2022-12-18T11:48:45;17.20;;;9.47;;
25627;SDS011;40915;50.826;4.356;2022-12-18T11:51:16;16.43;;;9.40;;
25627;SDS011;40915;50.826;4.356;2022-12-18T11:53:51;17.63;;;9.43;;
25627;SDS011;40915;50.826;4.356;2022-12-18T11:56:27;22.20;;;11.43;;
25627;SDS011;40915;50.826;4.356;2022-12-18T11:59:02;24.20;;;10.20;;
25627;SDS011;40915;50.826;4.356;2022-12-18T12:01:51;16.13;;;9.23;;
25627;SDS011;40915;50.826;4.356;2022-12-18T12:15:34;18.03;;;10.37;;
25627;SDS011;40915;50.826;4.356;2022-12-18T12:23:38;18.73;;;9.93;;
25627;SDS011;40915;50.826;4.356;2022-12-18T12:26:43;19.17;;;10.00;;
25627;SDS011;40915;50.826;4.356;2022-12-18T12:29:23;17.50;;;10.17;;
25627;SDS011;40915;50.826;4.356;2022-12-18T12:34:50;18.73;;;9.87;;
25627;SDS011;40915;50.826;4.356;2022-12-18T12:39:55;19.50;;;9.77;;
25627;SDS011;40915;50.826;4.356;2022-12-18T12:43:05;17.57;;;9.67;;
25627;SDS011;40915;50.826;4.356;2022-12-18T12:45:36;16.07;;;9.97;;
25627;SDS011;40915;50.826;4.356;2022-12-18T12:48:04;17.00;;;9.77;;
25627;SDS011;40915;50.826;4.356;2022-12-18T12:58:19;23.03;;;10.60;;
25627;SDS011;40915;50.826;4.356;2022-12-18T13:01:01;17.70;;;11.50;;
25627;SDS011;40915;50.826;4.356;2022-12-18T13:06:16;19.73;;;10.97;;
25627;SDS011;40915;50.826;4.356;2022-12-18T13:09:01;24.17;;;12.90;;
25627;SDS011;40915;50.826;4.356;2022-12-18T13:14:28;23.87;;;12.77;;
25627;SDS011;40915;50.826;4.356;2022-12-18T13:20:28;24.23;;;12.70;;
25627;SDS011;40915;50.826;4.356;2022-12-18T13:22:46;21.77;;;12.20;;
25627;SDS011;40915;50.826;4.356;2022-12-18T13:28:13;25.67;;;12.93;;
25627;SDS011;40915;50.826;4.356;2022-12-18T13:30:50;26.27;;;12.20;;
25627;SDS011;40915;50.826;4.356;2022-12-18T13:35:52;23.87;;;13.90;;
25627;SDS011;40915;50.826;4.356;2022-12-18T13:38:34;24.40;;;13.77;;
25627;SDS011;40915;50.826;4.356;2022-12-18T13:41:02;32.10;;;14.23;;
25627;SDS011;40915;50.826;4.356;2022-12-18T13:43:30;27.10;;;12.73;;
25627;SDS011;40915;50.826;4.356;2022-12-18T13:49:16;22.63;;;13.00;;
25627;SDS011;40915;50.826;4.356;2022-12-18T13:51:44;24.47;;;13.33;;
25627;SDS011;40915;50.826;4.356;2022-12-18T13:56:59;26.63;;;14.60;;
25627;SDS011;40915;50.826;4.356;2022-12-18T13:59:25;24.93;;;13.93;;
25627;SDS011;40915;50.826;4.356;2022-12-18T14:01:59;25.73;;;14.23;;
25627;SDS011;40915;50.826;4.356;2022-12-18T14:04:35;31.00;;;15.03;;
25627;SDS011;40915;50.826;4.356;2022-12-18T14:07:04;26.63;;;14.67;;
25627;SDS011;40915;50.826;4.356;2022-12-18T14:09:58;27.83;;;14.57;;
25627;SDS011;40915;50.826;4.356;2022-12-18T14:12:26;28.07;;;14.43;;
25627;SDS011;40915;50.826;4.356;2022-12-18T14:20:19;26.77;;;14.70;;
25627;SDS011;40915;50.826;4.356;2022-12-18T14:22:46;25.50;;;14.20;;
25627;SDS011;40915;50.826;4.356;2022-12-18T14:25:18;33.17;;;15.53;;
25627;SDS011;40915;50.826;4.356;2022-12-18T14:28:31;29.20;;;15.23;;
25627;SDS011;40915;50.826;4.356;2022-12-18T14:30:34;27.13;;;14.80;;
25627;SDS011;40915;50.826;4.356;2022-12-18T14:35:33;30.57;;;15.63;;
25627;SDS011;40915;50.826;4.356;2022-12-18T14:40:41;32.77;;;15.90;;
25627;SDS011;40915;50.826;4.356;2022-12-18T14:43:09;31.07;;;16.33;;
25627;SDS011;40915;50.826;4.356;2022-12-18T14:45:39;30.13;;;16.53;;
25627;SDS011;40915;50.826;4.356;2022-12-18T14:48:15;32.90;;;17.33;;
25627;SDS011;40915;50.826;4.356;2022-12-18T14:50:54;28.30;;;15.63;;
25627;SDS011;40915;50.826;4.356;2022-12-18T14:56:17;29.07;;;15.57;;
25627;SDS011;40915;50.826;4.356;2022-12-18T14:58:49;31.47;;;16.97;;
25627;SDS011;40915;50.826;4.356;2022-12-18T15:01:29;32.93;;;15.37;;
25627;SDS011;40915;50.826;4.356;2022-12-18T15:04:02;33.67;;;15.57;;
25627;SDS011;40915;50.826;4.356;2022-12-18T15:06:33;30.93;;;16.57;;
25627;SDS011;40915;50.826;4.356;2022-12-18T15:09:01;29.80;;;16.20;;
25627;SDS011;40915;50.826;4.356;2022-12-18T15:11:32;29.97;;;16.43;;
25627;SDS011;40915;50.826;4.356;2022-12-18T15:13:59;36.07;;;15.80;;
25627;SDS011;40915;50.826;4.356;2022-12-18T15:16:49;31.10;;;15.63;;
25627;SDS011;40915;50.826;4.356;2022-12-18T15:19:16;26.83;;;15.10;;
25627;SDS011;40915;50.826;4.356;2022-12-18T15:21:42;32.90;;;15.13;;
25627;SDS011;40915;50.826;4.356;2022-12-18T15:24:15;30.40;;;15.90;;
25627;SDS011;40915;50.826;4.356;2022-12-18T15:26:54;27.97;;;15.50;;
25627;SDS011;40915;50.826;4.356;2022-12-18T15:29:21;28.20;;;15.23;;
25627;SDS011;40915;50.826;4.356;2022-12-18T15:32:10;30.43;;;15.90;;
25627;SDS011;40915;50.826;4.356;2022-12-18T15:34:43;30.83;;;15.97;;
25627;SDS011;40915;50.826;4.356;2022-12-18T15:37:09;34.40;;;16.77;;
25627;SDS011;40915;50.826;4.356;2022-12-18T15:39:34;55.63;;;19.20;;
25627;SDS011;40915;50.826;4.356;2022-12-18T15:42:01;30.27;;;16.13;;
25627;SDS011;40915;50.826;4.356;2022-12-18T15:44:45;28.63;;;16.27;;
25627;SDS011;40915;50.826;4.356;2022-12-18T15:47:11;33.53;;;16.73;;
25627;SDS011;40915;50.826;4.356;2022-12-18T15:49:37;27.77;;;15.60;;
25627;SDS011;40915;50.826;4.356;2022-12-18T15:52:05;32.23;;;16.50;;
25627;SDS011;40915;50.826;4.356;2022-12-18T15:54:31;27.67;;;15.50;;
25627;SDS011;40915;50.826;4.356;2022-12-18T15:57:15;31.83;;;16.97;;
25627;SDS011;40915;50.826;4.356;2022-12-18T15:59:51;32.50;;;16.27;;
25627;SDS011;40915;50.826;4.356;2022-12-18T16:02:19;28.43;;;16.07;;
25627;SDS011;40915;50.826;4.356;2022-12-18T16:04:47;32.33;;;16.43;;
25627;SDS011;40915;50.826;4.356;2022-12-18T16:07:13;30.70;;;15.97;;
25627;SDS011;40915;50.826;4.356;2022-12-18T16:09:39;31.57;;;15.20;;
25627;SDS011;40915;50.826;4.356;2022-12-18T16:12:11;30.37;;;15.70;;
25627;SDS011;40915;50.826;4.356;2022-12-18T16:14:44;30.53;;;14.80;;
25627;SDS011;40915;50.826;4.356;2022-12-18T16:17:10;28.73;;;14.93;;
25627;SDS011;40915;50.826;4.356;2022-12-18T16:19:37;28.03;;;15.10;;
25627;SDS011;40915;50.826;4.356;2022-12-18T16:22:03;26.93;;;15.40;;
25627;SDS011;40915;50.826;4.356;2022-12-18T16:24:30;29.90;;;15.80;;
25627;SDS011;40915;50.826;4.356;2022-12-18T16:26:58;27.07;;;14.93;;
25627;SDS011;40915;50.826;4.356;2022-12-18T16:29:25;31.23;;;15.60;;
25627;SDS011;40915;50.826;4.356;2022-12-18T16:32:01;29.80;;;15.43;;
25627;SDS011;40915;50.826;4.356;2022-12-18T16:34:27;28.93;;;14.47;;
25627;SDS011;40915;50.826;4.356;2022-12-18T16:36:55;27.37;;;15.00;;
25627;SDS011;40915;50.826;4.356;2022-12-18T16:39:26;28.77;;;14.97;;
25627;SDS011;40915;50.826;4.356;2022-12-18T16:41:52;33.67;;;16.30;;
25627;SDS011;40915;50.826;4.356;2022-12-18T16:44:18;28.00;;;15.67;;